createdAt,value
2022-09-05T00:09:19.403Z,57.23
2022-09-05T00:24:23.042Z,56.84
2022-09-05T00:31:07.158Z,56.55
2022-09-05T00:40:43.857Z,56.54
2022-09-05T00:51:21.827Z,56.68
2022-09-05T01:01:49.527Z,56.93
2022-09-05T01:12:07.343Z,56.96
2022-09-05T01:22:37.097Z,56.89
2022-09-05T01:32:58.754Z,57.01
2022-09-05T01:43:25.680Z,57.18
2022-09-05T01:53:43.726Z,57.39
2022-09-05T02:03:54.614Z,57.64
2022-09-05T02:14:08.957Z,57.80
2022-09-05T02:24:23.199Z,57.97
2022-09-05T02:34:39.197Z,57.98
2022-09-05T02:45:25.680Z,57.84
2022-09-05T02:57:39.948Z,57.68
2022-09-05T03:06:34.356Z,57.33
2022-09-05T03:17:06.733Z,56.95
2022-09-05T03:38:11.094Z,56.41
2022-09-05T03:48:37.966Z,56.39
2022-09-05T03:59:09.759Z,56.34
2022-09-05T04:09:43.302Z,56.23
2022-09-05T04:19:53.667Z,56.38
2022-09-05T04:30:34.835Z,56.30
2022-09-05T04:40:46.903Z,56.22
2022-09-05T04:51:11.445Z,55.99
2022-09-05T05:06:00.770Z,55.74
2022-09-05T05:17:23.889Z,55.28
2022-09-05T05:22:23.349Z,53.99
2022-09-05T05:32:45.195Z,46.29
2022-09-05T05:42:52.825Z,38.99
2022-09-05T05:53:31.961Z,34.22
2022-09-05T06:04:21.854Z,29.26
2022-09-05T06:15:11.498Z,26.07
2022-09-05T06:25:52.250Z,24.26
2022-09-05T06:36:08.216Z,22.49
2022-09-05T06:46:55.014Z,21.24
2022-09-05T06:57:14.725Z,19.67
2022-09-05T07:07:27.912Z,18.49
2022-09-05T07:18:08.917Z,18.11
2022-09-05T07:28:28.950Z,17.49
2022-09-05T07:38:52.329Z,16.03
2022-09-05T07:49:05.736Z,14.97
2022-09-05T07:59:14.330Z,14.75
2022-09-05T08:10:06.050Z,14.49
2022-09-05T08:20:08.957Z,14.05
2022-09-05T08:30:26.449Z,13.50
2022-09-05T08:40:37.301Z,13.77
2022-09-05T08:51:04.316Z,17.90
2022-09-05T09:01:19.210Z,21.94
2022-09-05T09:11:34.349Z,24.13
2022-09-05T09:21:52.791Z,25.41
2022-09-05T09:32:07.682Z,26.75
2022-09-05T09:42:34.263Z,27.83
2022-09-05T09:53:06.887Z,28.41
2022-09-05T10:10:32.817Z,28.88
2022-09-05T10:14:50.603Z,29.15
2022-09-05T10:25:20.260Z,29.91
2022-09-05T10:35:32.599Z,30.83
2022-09-05T10:45:49.679Z,31.39
2022-09-05T10:56:12.482Z,32.24
2022-09-05T11:06:24.862Z,32.32
2022-09-05T11:16:40.254Z,32.52
2022-09-05T11:27:23.229Z,32.72
2022-09-05T11:39:56.264Z,32.83
2022-09-05T11:48:20.890Z,32.97
2022-09-05T11:58:48.459Z,32.62
2022-09-05T12:09:02.532Z,32.36
2022-09-05T12:19:26.921Z,32.03
2022-09-05T12:29:45.558Z,31.99
2022-09-05T12:41:39.082Z,31.63
2022-09-05T12:50:33.330Z,31.96
2022-09-05T13:03:12.459Z,32.08
2022-09-05T13:14:47.882Z,31.95
2022-09-05T13:21:44.591Z,31.95
2022-09-05T13:38:03.339Z,32.06
2022-09-05T13:42:45.447Z,31.95
2022-09-05T13:52:57.230Z,32.07
2022-09-05T14:03:43.275Z,32.25
2022-09-05T14:14:11.245Z,32.66
2022-09-05T14:24:17.226Z,32.85
2022-09-05T14:37:40.628Z,32.94
2022-09-05T14:46:00.377Z,32.54
2022-09-05T14:57:11.557Z,32.48
2022-09-05T15:06:38.126Z,32.73
2022-09-05T15:17:01.276Z,32.54
2022-09-05T15:27:16.894Z,32.70
2022-09-05T15:37:31.360Z,33.29
2022-09-05T15:47:39.582Z,33.33
2022-09-05T15:57:46.728Z,33.61
2022-09-05T16:10:41.557Z,33.75
2022-09-05T16:23:16.885Z,34.19
2022-09-05T16:28:58.008Z,34.86
2022-09-05T16:39:08.925Z,35.48
2022-09-05T16:49:29.677Z,35.57
2022-09-05T16:59:47.795Z,36.03
2022-09-05T17:09:53.814Z,36.76
2022-09-05T17:20:07.070Z,37.56
2022-09-05T17:41:10.624Z,38.58
2022-09-05T17:51:38.355Z,39.17
2022-09-05T18:02:29.853Z,39.61
2022-09-05T18:13:13.458Z,40.28
2022-09-05T18:23:39.622Z,40.74
2022-09-05T18:34:38.195Z,41.42
2022-09-05T18:44:49.539Z,42.14
2022-09-05T18:55:30.161Z,42.65
2022-09-05T19:05:41.792Z,43.12
2022-09-05T19:16:03.669Z,43.60
2022-09-05T19:26:22.223Z,44.05
2022-09-05T19:36:55.591Z,44.21
2022-09-05T19:47:44.059Z,44.62
2022-09-05T19:57:25.659Z,44.80
2022-09-05T20:07:33.238Z,45.17
2022-09-05T20:17:43.145Z,45.52
2022-09-05T20:27:50.590Z,45.85
2022-09-05T20:43:15.901Z,46.20
2022-09-05T20:54:07.911Z,46.65
2022-09-05T20:58:55.663Z,47.10
2022-09-05T21:09:25.318Z,47.38
2022-09-05T21:19:33.822Z,47.35
2022-09-05T21:29:40.059Z,47.66
2022-09-05T21:39:59.436Z,48.05
2022-09-05T21:50:07.555Z,48.39
2022-09-05T22:00:20.531Z,49.32
2022-09-05T22:10:35.441Z,50.08
2022-09-05T22:21:31.961Z,50.67
2022-09-05T22:31:20.573Z,51.14
2022-09-05T22:41:30.191Z,51.59
2022-09-05T22:51:37.184Z,52.08
2022-09-05T23:01:43.812Z,52.27
2022-09-05T23:11:49.748Z,52.46
2022-09-05T23:21:55.647Z,53.04
2022-09-05T23:32:01.483Z,53.46
2022-09-05T23:42:07.542Z,53.97
2022-09-05T23:52:13.474Z,54.53
